Time;durP1;ratioP1;P1;durP2;ratioP2;P2;SDS_P1;SDS_P2;PMS_P1;PMS_P2;Temp;Humidity;BMP_temperature;BMP_pressure;BME280_temperature;BME280_humidity;BME280_pressure;Samples;Min_cycle;Max_cycle;Signal;HPM_P1;HPM_P2
2023/12/24 00:00:27;;;;;;;14.77;5.47;;;3.30;1.00;;;;;;5064989;28;20387;-77
2023/12/24 00:02:57;;;;;;;12.03;5.53;;;3.20;1.00;;;;;;5068000;28;20235;-78
2023/12/24 00:05:28;;;;;;;14.47;5.70;;;3.20;1.00;;;;;;5060932;28;20262;-78
2023/12/24 00:07:58;;;;;;;18.10;5.40;;;3.30;1.00;;;;;;5066072;28;20297;-77
2023/12/24 00:10:26;;;;;;;13.47;5.00;;;3.40;1.00;;;;;;5060279;28;20229;-80
2023/12/24 00:12:55;;;;;;;10.87;5.07;;;3.30;1.00;;;;;;5062632;28;20335;-78
2023/12/24 00:15:23;;;;;;;18.00;5.17;;;3.30;1.00;;;;;;5059634;28;20221;-78
2023/12/24 00:17:52;;;;;;;15.07;5.60;;;3.30;1.00;;;;;;5039204;28;20326;-78
2023/12/24 00:20:22;;;;;;;10.07;5.03;;;3.30;1.00;;;;;;5064382;28;20216;-78
2023/12/24 00:23:05;;;;;;;12.97;4.90;;;3.40;1.00;;;;;;5062440;28;20251;-79
2023/12/24 00:25:34;;;;;;;12.80;5.00;;;3.20;1.00;;;;;;5059408;28;20231;-77
2023/12/24 00:28:02;;;;;;;9.47;4.60;;;3.20;1.00;;;;;;5066877;28;20235;-79
2023/12/24 00:30:31;;;;;;;9.03;4.83;;;3.20;1.00;;;;;;5059403;28;20231;-79
2023/12/24 00:33:00;;;;;;;10.33;4.63;;;3.20;1.00;;;;;;5060612;28;20764;-80
2023/12/24 00:35:33;;;;;;;8.53;4.20;;;3.30;1.00;;;;;;5062903;28;20227;-79
2023/12/24 00:38:01;;;;;;;12.80;4.50;;;3.30;1.00;;;;;;5060930;28;20220;-79
2023/12/24 00:40:31;;;;;;;11.17;4.50;;;3.20;1.00;;;;;;5064914;28;20252;-79
2023/12/24 00:43:01;;;;;;;11.60;4.30;;;3.20;1.00;;;;;;5077804;28;20232;-79
2023/12/24 00:45:31;;;;;;;10.70;3.80;;;3.30;1.00;;;;;;5079265;28;20228;-78
2023/12/24 00:48:00;;;;;;;10.40;4.17;;;3.20;1.00;;;;;;5063357;28;20324;-77
2023/12/24 00:50:30;;;;;;;10.00;4.10;;;3.20;1.00;;;;;;5062722;28;20229;-79
2023/12/24 00:53:02;;;;;;;9.00;4.37;;;3.10;1.00;;;;;;5059718;28;20262;-80
2023/12/24 00:55:31;;;;;;;12.77;4.23;;;3.10;1.00;;;;;;5073604;28;20303;-78
2023/12/24 00:57:59;;;;;;;7.80;3.90;;;3.00;1.00;;;;;;5055369;28;20224;-80
2023/12/24 01:00:28;;;;;;;10.73;4.70;;;2.90;1.00;;;;;;5061582;28;20220;-80
2023/12/24 01:02:56;;;;;;;6.47;3.50;;;3.00;1.00;;;;;;5062067;28;20220;-79
2023/12/24 01:05:25;;;;;;;7.63;3.60;;;2.90;1.00;;;;;;5057995;28;20228;-79
2023/12/24 01:07:55;;;;;;;7.33;3.50;;;2.90;1.00;;;;;;5056166;28;20216;-79
2023/12/24 01:10:23;;;;;;;11.23;3.53;;;2.90;1.00;;;;;;5057499;28;20219;-81
2023/12/24 01:12:52;;;;;;;10.50;3.70;;;2.90;1.00;;;;;;5059355;28;20232;-78
2023/12/24 01:15:21;;;;;;;10.10;4.40;;;2.90;1.00;;;;;;5063632;28;20248;-78
2023/12/24 01:17:50;;;;;;;8.57;3.73;;;2.90;1.00;;;;;;5063227;28;20288;-79
2023/12/24 01:20:19;;;;;;;7.17;3.23;;;3.00;1.00;;;;;;5062987;28;20702;-78
2023/12/24 01:22:48;;;;;;;7.40;3.37;;;3.00;1.00;;;;;;5061836;28;20473;-77
2023/12/24 01:25:18;;;;;;;8.93;3.80;;;3.00;1.00;;;;;;5059665;28;20802;-76
2023/12/24 01:27:47;;;;;;;7.30;3.60;;;3.00;1.00;;;;;;5058312;28;20228;-78
2023/12/24 01:30:15;;;;;;;7.73;3.50;;;3.10;1.00;;;;;;5062701;28;20573;-78
2023/12/24 01:32:44;;;;;;;8.43;3.10;;;3.00;1.00;;;;;;5061304;28;20247;-79
2023/12/24 01:35:13;;;;;;;8.07;2.90;;;2.90;1.00;;;;;;5061263;28;20232;-77
2023/12/24 01:37:41;;;;;;;8.50;3.33;;;2.90;1.00;;;;;;5059194;28;20220;-78
2023/12/24 01:40:11;;;;;;;10.57;3.23;;;2.90;1.00;;;;;;5062744;28;20243;-79
2023/12/24 01:42:43;;;;;;;6.37;2.97;;;2.90;1.00;;;;;;5057811;28;20231;-79
2023/12/24 01:45:13;;;;;;;14.90;3.37;;;2.80;1.00;;;;;;5069676;28;20235;-79
2023/12/24 01:47:43;;;;;;;9.87;3.13;;;2.80;1.00;;;;;;5060801;28;20306;-78
2023/12/24 01:50:18;;;;;;;4.83;2.80;;;2.80;1.00;;;;;;5043774;28;20606;-79
2023/12/24 01:52:47;;;;;;;7.20;3.03;;;2.80;1.00;;;;;;5056176;28;20235;-79
2023/12/24 01:55:15;;;;;;;9.17;3.20;;;2.80;1.00;;;;;;5063048;28;20224;-78
2023/12/24 01:57:45;;;;;;;7.10;3.37;;;2.70;1.00;;;;;;5068278;28;20311;-78
2023/12/24 02:00:16;;;;;;;9.60;3.30;;;2.70;1.00;;;;;;5073766;28;20232;-78
2023/12/24 02:02:45;;;;;;;6.53;2.80;;;2.70;1.00;;;;;;5074756;28;20271;-79
2023/12/24 02:05:14;;;;;;;5.63;3.00;;;2.70;1.00;;;;;;5091018;28;20224;-79
2023/12/24 02:07:44;;;;;;;5.57;3.03;;;2.70;1.00;;;;;;5061612;28;20223;-78
2023/12/24 02:10:16;;;;;;;7.30;3.30;;;2.60;1.00;;;;;;5062612;28;20693;-78
2023/12/24 02:12:46;;;;;;;9.57;3.20;;;2.50;1.00;;;;;;5062998;28;20225;-78
2023/12/24 02:15:14;;;;;;;7.43;3.13;;;2.50;1.00;;;;;;5058711;28;20696;-78
2023/12/24 02:17:44;;;;;;;7.90;3.20;;;2.40;1.00;;;;;;5063707;28;20220;-78
2023/12/24 02:20:13;;;;;;;5.57;3.00;;;2.50;1.00;;;;;;5055381;28;20251;-78
2023/12/24 02:22:43;;;;;;;5.43;3.10;;;2.40;1.00;;;;;;5060892;28;20234;-78
2023/12/24 02:25:10;;;;;;;6.77;3.00;;;2.50;1.00;;;;;;5062819;28;20224;-78
2023/12/24 02:27:48;;;;;;;10.53;3.17;;;2.60;1.00;;;;;;5070924;28;20321;-79
2023/12/24 02:30:21;;;;;;;6.23;3.10;;;2.50;1.00;;;;;;5056566;28;20228;-78
2023/12/24 02:32:55;;;;;;;8.80;3.50;;;2.50;1.00;;;;;;5063897;28;20232;-78
2023/12/24 02:35:29;;;;;;;7.13;3.40;;;2.40;1.00;;;;;;5081214;28;20361;-78
2023/12/24 02:37:59;;;;;;;7.80;3.40;;;2.40;1.00;;;;;;5066483;28;20220;-80
2023/12/24 02:40:29;;;;;;;6.40;2.83;;;2.40;1.00;;;;;;5077191;28;20224;-79
2023/12/24 02:42:58;;;;;;;9.73;3.50;;;2.50;1.00;;;;;;5062315;28;20713;-78
2023/12/24 02:45:26;;;;;;;8.43;3.47;;;2.40;1.00;;;;;;5062774;28;20303;-78
2023/12/24 02:47:55;;;;;;;10.90;3.73;;;2.40;1.00;;;;;;5065912;28;20224;-77
2023/12/24 02:50:23;;;;;;;6.10;3.07;;;2.30;1.00;;;;;;5065553;28;20311;-77
2023/12/24 02:52:52;;;;;;;6.33;3.30;;;2.30;1.00;;;;;;5062822;28;20234;-78
2023/12/24 02:55:22;;;;;;;5.90;3.20;;;2.30;1.00;;;;;;5059121;28;20224;-78
2023/12/24 02:57:51;;;;;;;6.30;3.40;;;2.30;1.00;;;;;;5062591;28;20212;-79
2023/12/24 03:00:19;;;;;;;5.63;3.40;;;2.30;1.00;;;;;;5063178;28;20250;-78
2023/12/24 03:02:49;;;;;;;9.07;3.80;;;2.40;1.00;;;;;;5067067;28;20220;-78
2023/12/24 03:05:18;;;;;;;7.67;3.40;;;2.40;1.00;;;;;;5067328;28;20251;-78
2023/12/24 03:07:47;;;;;;;6.60;3.77;;;2.30;1.00;;;;;;5091241;28;20228;-79
2023/12/24 03:10:15;;;;;;;10.57;3.57;;;2.30;1.00;;;;;;5063833;28;20251;-79
2023/12/24 03:12:45;;;;;;;10.00;3.80;;;2.30;1.00;;;;;;5063418;28;20228;-79
2023/12/24 03:15:14;;;;;;;8.07;3.87;;;2.20;1.00;;;;;;5063776;28;20235;-78
2023/12/24 03:17:43;;;;;;;9.60;3.80;;;2.30;1.00;;;;;;5065040;28;20226;-78
2023/12/24 03:20:12;;;;;;;6.50;3.67;;;2.20;1.00;;;;;;5079119;28;20226;-78
2023/12/24 03:22:40;;;;;;;9.10;3.50;;;2.10;1.00;;;;;;5063795;28;20729;-78
2023/12/24 03:25:09;;;;;;;7.97;3.60;;;2.00;1.00;;;;;;5065807;28;20220;-78
2023/12/24 03:27:37;;;;;;;8.80;3.80;;;2.00;1.00;;;;;;5055549;28;20309;-76
2023/12/24 03:30:09;;;;;;;8.03;3.73;;;2.10;1.00;;;;;;5058500;28;20320;-77
2023/12/24 03:32:38;;;;;;;7.00;3.40;;;2.00;1.00;;;;;;5061593;28;20304;-78
2023/12/24 03:35:07;;;;;;;8.97;3.20;;;2.00;1.00;;;;;;5065482;28;20232;-77
2023/12/24 03:37:36;;;;;;;8.13;3.47;;;2.00;1.00;;;;;;5063189;28;20227;-78
2023/12/24 03:40:05;;;;;;;11.03;3.57;;;2.00;1.00;;;;;;5063203;28;21483;-78
2023/12/24 03:42:33;;;;;;;9.47;3.50;;;2.10;1.00;;;;;;5064564;28;20674;-78
2023/12/24 03:45:03;;;;;;;5.97;3.10;;;1.90;1.00;;;;;;5068684;28;20277;-77
2023/12/24 03:47:32;;;;;;;6.07;2.73;;;1.90;1.00;;;;;;5065679;28;20227;-78
2023/12/24 03:50:01;;;;;;;8.93;3.10;;;1.90;1.00;;;;;;5061350;28;20790;-77
2023/12/24 03:52:30;;;;;;;8.23;3.10;;;1.90;1.00;;;;;;5061008;28;20236;-78
2023/12/24 03:54:59;;;;;;;9.03;3.47;;;1.90;1.00;;;;;;5056512;28;20573;-77
2023/12/24 03:57:27;;;;;;;8.23;3.20;;;1.90;1.00;;;;;;5059937;28;20226;-77
2023/12/24 03:59:56;;;;;;;9.60;3.67;;;2.00;1.00;;;;;;5061860;28;20312;-80
2023/12/24 04:02:25;;;;;;;5.93;2.87;;;2.00;1.00;;;;;;5091676;28;20788;-78
2023/12/24 04:04:55;;;;;;;8.40;3.10;;;2.10;1.00;;;;;;5064337;28;20257;-79
2023/12/24 04:07:23;;;;;;;10.63;3.87;;;1.80;1.00;;;;;;5063417;28;20255;-77
2023/12/24 04:09:51;;;;;;;9.17;3.20;;;1.90;1.00;;;;;;5063189;28;20224;-78
2023/12/24 04:12:20;;;;;;;8.30;3.03;;;1.90;1.00;;;;;;5054500;28;20261;-79
2023/12/24 04:14:48;;;;;;;7.63;3.03;;;2.00;1.00;;;;;;5056355;28;20219;-77
2023/12/24 04:17:17;;;;;;;11.47;3.70;;;2.00;1.00;;;;;;5062971;28;20334;-78
2023/12/24 04:19:46;;;;;;;8.67;2.97;;;2.00;1.00;;;;;;5080682;28;20223;-78
2023/12/24 04:22:16;;;;;;;9.60;3.33;;;2.00;1.00;;;;;;5056443;28;20243;-78
2023/12/24 04:24:45;;;;;;;8.80;3.13;;;2.00;1.00;;;;;;5053404;28;20247;-79
2023/12/24 04:27:13;;;;;;;8.87;3.43;;;1.90;1.00;;;;;;5063544;28;20326;-79
2023/12/24 04:29:42;;;;;;;8.97;3.17;;;1.90;1.00;;;;;;5064843;28;20726;-78
2023/12/24 04:32:32;;;;;;;11.07;3.50;;;1.90;1.00;;;;;;5062354;28;20350;-79
2023/12/24 04:35:02;;;;;;;8.13;3.17;;;1.80;1.00;;;;;;5059517;28;20691;-78
2023/12/24 04:37:32;;;;;;;6.40;2.90;;;1.80;1.00;;;;;;5059041;28;20266;-78
2023/12/24 04:40:01;;;;;;;10.90;3.30;;;1.80;1.00;;;;;;5062767;28;20314;-78
2023/12/24 04:42:30;;;;;;;9.67;3.47;;;1.90;1.00;;;;;;5060617;28;20305;-79
2023/12/24 04:45:00;;;;;;;11.70;3.23;;;1.80;1.00;;;;;;5063202;28;20438;-76
2023/12/24 04:47:29;;;;;;;8.57;3.30;;;1.90;1.00;;;;;;5064187;28;20223;-76
2023/12/24 04:49:58;;;;;;;9.87;3.07;;;1.80;1.00;;;;;;5062575;28;20252;-79
2023/12/24 04:52:27;;;;;;;10.00;3.13;;;1.80;1.00;;;;;;5078787;28;20591;-78
2023/12/24 04:54:58;;;;;;;9.13;3.13;;;1.80;1.00;;;;;;5062981;28;20224;-78
2023/12/24 04:57:26;;;;;;;12.07;3.33;;;1.90;1.00;;;;;;5064596;28;20273;-78
2023/12/24 04:59:55;;;;;;;6.87;3.00;;;1.90;1.00;;;;;;5062406;28;20224;-78
2023/12/24 05:02:23;;;;;;;10.27;3.30;;;1.90;1.00;;;;;;5061775;28;20224;-79
2023/12/24 05:04:54;;;;;;;8.00;3.57;;;1.90;1.00;;;;;;5059796;28;20219;-78
2023/12/24 05:07:23;;;;;;;6.50;3.17;;;1.90;1.00;;;;;;5070169;28;20231;-78
2023/12/24 05:09:52;;;;;;;12.20;4.50;;;1.90;1.00;;;;;;5067391;28;20307;-80
2023/12/24 05:12:22;;;;;;;9.07;3.43;;;1.90;1.00;;;;;;5061839;28;20335;-79
2023/12/24 05:14:50;;;;;;;10.33;3.43;;;1.80;1.00;;;;;;5065284;28;20235;-79
2023/12/24 05:17:19;;;;;;;7.17;3.03;;;1.80;1.00;;;;;;5064080;28;20223;-78
2023/12/24 05:19:48;;;;;;;10.97;3.53;;;1.70;1.00;;;;;;5060058;28;20228;-79
2023/12/24 05:22:16;;;;;;;7.83;3.53;;;1.80;1.00;;;;;;5062563;28;20232;-78
2023/12/24 05:24:44;;;;;;;6.90;3.33;;;1.90;1.00;;;;;;5061581;28;20323;-78
2023/12/24 05:27:13;;;;;;;10.23;3.33;;;1.90;1.00;;;;;;5062423;28;20228;-78
2023/12/24 05:29:43;;;;;;;8.10;3.33;;;1.90;1.00;;;;;;5057983;28;20240;-78
2023/12/24 05:32:11;;;;;;;7.60;3.20;;;1.90;1.00;;;;;;5077606;28;20289;-78
2023/12/24 05:34:40;;;;;;;9.80;3.53;;;1.80;1.00;;;;;;5062530;28;20976;-79
2023/12/24 05:37:09;;;;;;;10.83;3.53;;;1.80;1.00;;;;;;5067099;28;20263;-78
2023/12/24 05:39:41;;;;;;;9.57;4.47;;;1.80;1.00;;;;;;5068760;28;20231;-78
2023/12/24 05:42:10;;;;;;;10.67;3.80;;;1.90;1.00;;;;;;5068258;28;20334;-78
2023/12/24 05:44:55;;;;;;;9.47;4.00;;;1.90;1.00;;;;;;5065283;28;20227;-78
2023/12/24 05:47:24;;;;;;;9.40;3.40;;;1.90;1.00;;;;;;5059454;28;20638;-79
2023/12/24 05:49:53;;;;;;;8.40;3.50;;;1.90;1.00;;;;;;5064206;28;20244;-78
2023/12/24 05:52:21;;;;;;;17.70;9.93;;;1.90;1.00;;;;;;5058084;28;20328;-79
2023/12/24 05:54:54;;;;;;;23.97;11.80;;;2.00;1.00;;;;;;5058942;28;20315;-78
2023/12/24 05:57:23;;;;;;;21.57;13.80;;;2.00;1.00;;;;;;5064490;28;20281;-79
2023/12/24 05:59:51;;;;;;;12.33;4.83;;;2.00;1.00;;;;;;5066956;28;20243;-79
2023/12/24 06:02:21;;;;;;;14.77;6.90;;;2.00;1.00;;;;;;5065733;28;20224;-79
2023/12/24 06:04:50;;;;;;;7.97;3.90;;;1.90;1.00;;;;;;5065788;28;20311;-79
2023/12/24 06:07:18;;;;;;;12.27;4.03;;;1.90;1.00;;;;;;5081253;28;20242;-80
2023/12/24 06:09:47;;;;;;;6.83;3.50;;;2.00;1.00;;;;;;5067557;28;20220;-78
2023/12/24 06:12:15;;;;;;;11.50;3.80;;;2.00;1.00;;;;;;5061104;28;20247;-78
2023/12/24 06:14:44;;;;;;;8.93;3.80;;;2.00;1.00;;;;;;5065024;28;20228;-78
2023/12/24 06:17:12;;;;;;;8.13;3.67;;;2.00;1.00;;;;;;5063982;28;20251;-78
2023/12/24 06:19:42;;;;;;;8.60;3.87;;;2.00;1.00;;;;;;5067906;28;20242;-78
2023/12/24 06:22:11;;;;;;;8.17;3.50;;;2.00;1.00;;;;;;5065740;28;20251;-78
2023/12/24 06:24:39;;;;;;;9.03;4.37;;;2.00;1.00;;;;;;5064823;28;20231;-78
2023/12/24 06:27:08;;;;;;;11.53;3.93;;;2.10;1.00;;;;;;5063977;28;20240;-78
2023/12/24 06:29:37;;;;;;;10.17;4.33;;;2.10;1.00;;;;;;5061872;28;20228;-80
2023/12/24 06:32:06;;;;;;;9.43;4.47;;;2.10;1.00;;;;;;5066744;28;20247;-78
2023/12/24 06:34:35;;;;;;;11.10;4.40;;;2.10;1.00;;;;;;5066144;28;20271;-79
2023/12/24 06:37:05;;;;;;;6.37;3.73;;;2.10;1.00;;;;;;5063817;28;20221;-79
2023/12/24 06:39:34;;;;;;;12.97;4.20;;;2.20;1.00;;;;;;5065489;28;20247;-78
2023/12/24 06:42:03;;;;;;;7.07;3.73;;;2.20;1.00;;;;;;5082699;28;20319;-79
2023/12/24 06:44:31;;;;;;;11.37;4.10;;;2.10;1.00;;;;;;5065178;28;20305;-79
2023/12/24 06:47:00;;;;;;;9.17;4.00;;;2.10;1.00;;;;;;5068476;28;20243;-79
2023/12/24 06:49:29;;;;;;;10.20;3.87;;;2.20;1.00;;;;;;5064699;28;21077;-79
2023/12/24 06:51:57;;;;;;;9.77;4.20;;;2.20;1.00;;;;;;5067009;28;20219;-80
2023/12/24 06:54:28;;;;;;;8.60;4.30;;;2.20;1.00;;;;;;5058366;28;20267;-78
2023/12/24 06:56:56;;;;;;;7.23;4.13;;;2.30;1.00;;;;;;5058621;28;20228;-78
2023/12/24 06:59:25;;;;;;;12.67;4.07;;;2.20;1.00;;;;;;5063190;28;20220;-77
2023/12/24 07:01:54;;;;;;;8.90;4.17;;;2.40;1.00;;;;;;5066843;28;20232;-78
2023/12/24 07:04:22;;;;;;;10.40;4.20;;;2.40;1.00;;;;;;5052682;28;20223;-78
2023/12/24 07:06:54;;;;;;;7.27;4.43;;;2.40;1.00;;;;;;5065215;28;20607;-77
2023/12/24 07:09:22;;;;;;;11.27;5.87;;;2.40;1.00;;;;;;5061838;28;20216;-78
2023/12/24 07:11:53;;;;;;;16.33;5.20;;;2.40;1.00;;;;;;5069862;28;20228;-77
2023/12/24 07:14:21;;;;;;;15.67;4.97;;;2.40;1.00;;;;;;5085899;28;20237;-77
2023/12/24 07:16:50;;;;;;;8.93;4.20;;;2.50;1.00;;;;;;5070741;28;20227;-77
2023/12/24 07:19:18;;;;;;;9.73;4.50;;;2.50;1.00;;;;;;5058249;28;20546;-78
2023/12/24 07:21:47;;;;;;;9.33;4.23;;;2.40;1.00;;;;;;5066739;28;20224;-78
2023/12/24 07:24:16;;;;;;;9.07;4.83;;;2.60;1.00;;;;;;5059681;28;20321;-78
2023/12/24 07:26:45;;;;;;;10.30;4.90;;;2.60;1.00;;;;;;5059573;28;20224;-78
2023/12/24 07:29:16;;;;;;;11.57;4.60;;;2.70;1.00;;;;;;5065185;28;20238;-77
2023/12/24 07:31:44;;;;;;;8.10;4.67;;;2.70;1.00;;;;;;5062137;28;20335;-78
2023/12/24 07:34:13;;;;;;;14.20;5.00;;;2.70;1.00;;;;;;5062628;28;20239;-78
2023/12/24 07:36:42;;;;;;;11.80;5.60;;;2.70;1.00;;;;;;5058444;28;20324;-77
2023/12/24 07:39:10;;;;;;;10.23;4.97;;;2.80;1.00;;;;;;5059275;28;20220;-77
2023/12/24 07:41:39;;;;;;;12.80;5.47;;;2.80;1.00;;;;;;5062898;28;20286;-78
2023/12/24 07:44:13;;;;;;;15.27;5.33;;;2.80;1.00;;;;;;5062971;28;20224;-77
2023/12/24 07:46:44;;;;;;;9.93;4.73;;;2.80;1.00;;;;;;5068331;28;20229;-77
2023/12/24 07:49:13;;;;;;;15.63;8.80;;;2.90;1.00;;;;;;5064725;28;20232;-78
2023/12/24 07:51:42;;;;;;;11.87;6.57;;;2.90;1.00;;;;;;5065591;28;20252;-78
2023/12/24 07:54:10;;;;;;;15.47;6.03;;;2.90;1.00;;;;;;5055035;28;20229;-77
2023/12/24 07:56:39;;;;;;;13.97;6.03;;;2.90;1.00;;;;;;5065102;28;20231;-78
2023/12/24 07:59:08;;;;;;;13.83;6.10;;;3.00;1.00;;;;;;5064379;28;20227;-78
2023/12/24 08:01:37;;;;;;;16.07;6.60;;;2.90;1.00;;;;;;5064525;28;20816;-78
2023/12/24 08:04:07;;;;;;;16.47;6.23;;;2.90;1.00;;;;;;5064248;28;20224;-78
2023/12/24 08:06:36;;;;;;;16.47;6.67;;;3.00;1.00;;;;;;5064356;28;20596;-78
2023/12/24 08:09:07;;;;;;;12.93;6.20;;;3.10;1.00;;;;;;5062913;28;20799;-78
2023/12/24 08:11:36;;;;;;;14.40;7.03;;;3.10;1.00;;;;;;5061994;28;20267;-78
2023/12/24 08:14:05;;;;;;;11.50;6.33;;;3.00;1.00;;;;;;5061548;28;20258;-78
2023/12/24 08:16:35;;;;;;;12.83;6.90;;;3.10;1.00;;;;;;5064790;28;20255;-78
2023/12/24 08:19:03;;;;;;;18.33;7.00;;;3.20;1.00;;;;;;5067440;28;20240;-77
2023/12/24 08:21:33;;;;;;;13.83;7.07;;;3.20;1.00;;;;;;5059849;28;20232;-78
2023/12/24 08:24:02;;;;;;;13.13;7.00;;;3.20;1.00;;;;;;5062764;28;20339;-78
2023/12/24 08:26:30;;;;;;;16.83;6.80;;;3.30;1.00;;;;;;5078852;28;20307;-78
2023/12/24 08:28:59;;;;;;;15.03;6.97;;;3.30;1.00;;;;;;5059930;28;20655;-78
2023/12/24 08:31:28;;;;;;;15.40;7.67;;;3.20;1.00;;;;;;5059037;28;20863;-77
2023/12/24 08:33:56;;;;;;;14.77;6.60;;;3.30;1.00;;;;;;5061711;28;20286;-78
2023/12/24 08:36:25;;;;;;;16.40;7.27;;;3.30;1.00;;;;;;5064579;28;20224;-77
2023/12/24 08:38:55;;;;;;;16.30;7.10;;;3.40;1.00;;;;;;5070255;28;20220;-78
2023/12/24 08:41:23;;;;;;;15.20;7.40;;;3.40;1.00;;;;;;5061269;28;20266;-78
2023/12/24 08:43:52;;;;;;;16.93;7.73;;;3.50;1.00;;;;;;5056492;28;20232;-78
2023/12/24 08:46:20;;;;;;;15.00;7.20;;;3.50;1.00;;;;;;5060044;28;20686;-77
2023/12/24 08:48:49;;;;;;;15.33;7.73;;;3.50;1.00;;;;;;5062000;28;20591;-78
2023/12/24 08:51:18;;;;;;;18.83;7.73;;;3.50;1.00;;;;;;5063904;28;20239;-78
2023/12/24 08:53:46;;;;;;;17.07;7.73;;;3.50;1.00;;;;;;5057718;28;20236;-76
2023/12/24 08:56:16;;;;;;;15.63;7.63;;;3.50;1.00;;;;;;5058764;28;20296;-78
2023/12/24 08:58:45;;;;;;;15.70;7.33;;;3.60;1.00;;;;;;5065600;28;20715;-78
2023/12/24 09:01:13;;;;;;;17.60;7.83;;;3.60;1.00;;;;;;5062073;28;20255;-78
2023/12/24 09:03:42;;;;;;;16.77;8.20;;;3.60;1.00;;;;;;5062243;28;20764;-77
2023/12/24 09:06:11;;;;;;;15.00;8.00;;;3.50;1.00;;;;;;5064160;28;20220;-77
2023/12/24 09:08:39;;;;;;;17.87;8.63;;;3.60;1.00;;;;;;5065208;28;20224;-77
2023/12/24 09:11:08;;;;;;;18.87;8.93;;;3.70;1.00;;;;;;5063579;28;20220;-77
2023/12/24 09:13:38;;;;;;;19.67;8.73;;;3.70;1.00;;;;;;5065076;28;20243;-79
2023/12/24 09:16:08;;;;;;;16.97;9.33;;;3.70;1.00;;;;;;5060897;28;20220;-78
2023/12/24 09:18:36;;;;;;;18.93;8.57;;;3.80;1.00;;;;;;5051053;28;20331;-79
2023/12/24 09:21:05;;;;;;;16.80;8.73;;;3.80;1.00;;;;;;5071868;28;20248;-77
2023/12/24 09:23:33;;;;;;;19.67;9.00;;;3.80;1.00;;;;;;5061409;28;20251;-79
2023/12/24 09:26:02;;;;;;;18.80;8.23;;;3.80;1.00;;;;;;5084017;28;20220;-78
2023/12/24 09:28:31;;;;;;;20.57;8.20;;;3.80;1.00;;;;;;5067843;28;20235;-80
2023/12/24 09:31:01;;;;;;;13.93;8.50;;;4.00;1.00;;;;;;5064677;28;20257;-78
2023/12/24 09:33:29;;;;;;;16.37;8.13;;;4.10;1.00;;;;;;5068502;28;20231;-79
2023/12/24 09:35:59;;;;;;;16.67;8.40;;;4.10;1.00;;;;;;5069461;28;20236;-80
2023/12/24 09:38:28;;;;;;;13.83;8.20;;;4.10;1.00;;;;;;5069382;28;20699;-79
2023/12/24 09:40:56;;;;;;;16.43;8.20;;;4.10;1.00;;;;;;5069168;28;20236;-78
2023/12/24 09:43:29;;;;;;;17.97;8.47;;;4.20;1.00;;;;;;5067613;28;20263;-78
2023/12/24 09:45:57;;;;;;;16.23;8.43;;;4.20;1.00;;;;;;5063604;28;20224;-80
2023/12/24 09:48:27;;;;;;;15.90;8.80;;;4.00;1.00;;;;;;5056675;28;20758;-77
2023/12/24 09:50:56;;;;;;;15.67;8.27;;;4.10;1.00;;;;;;5067312;28;20224;-78
2023/12/24 09:53:25;;;;;;;13.83;8.60;;;4.10;1.00;;;;;;5061490;28;20235;-78
2023/12/24 09:55:54;;;;;;;16.60;8.90;;;4.10;1.00;;;;;;5064199;28;20785;-78
2023/12/24 09:58:22;;;;;;;15.80;9.00;;;4.10;1.00;;;;;;5067356;28;20227;-78
2023/12/24 10:00:51;;;;;;;19.57;10.40;;;4.20;1.00;;;;;;5067713;28;20231;-78
2023/12/24 10:03:20;;;;;;;17.73;10.10;;;4.20;1.00;;;;;;5071777;28;20225;-78
2023/12/24 10:06:03;;;;;;;18.10;9.67;;;4.20;1.00;;;;;;5069901;28;20226;-76
2023/12/24 10:08:32;;;;;;;16.37;9.87;;;4.20;1.00;;;;;;5064997;28;20227;-78
2023/12/24 10:11:13;;;;;;;18.37;10.93;;;4.20;1.00;;;;;;5064583;28;20220;-79
2023/12/24 10:13:42;;;;;;;19.33;11.17;;;4.30;1.00;;;;;;5066975;28;20757;-78
2023/12/24 10:16:11;;;;;;;21.13;11.73;;;4.30;1.00;;;;;;5063528;28;20228;-78
2023/12/24 10:18:49;;;;;;;20.20;11.97;;;4.40;1.00;;;;;;5066733;28;20224;-78
2023/12/24 10:21:20;;;;;;;20.90;11.73;;;4.40;1.00;;;;;;5093489;28;20223;-78
2023/12/24 10:23:48;;;;;;;18.07;11.13;;;4.50;1.00;;;;;;5065327;28;20239;-78
2023/12/24 10:26:23;;;;;;;21.07;12.07;;;4.40;1.00;;;;;;5063799;28;20311;-78
2023/12/24 10:28:53;;;;;;;22.53;12.00;;;4.50;1.00;;;;;;5075159;28;20227;-77
2023/12/24 10:31:31;;;;;;;22.43;12.07;;;4.60;1.00;;;;;;5084309;28;20234;-79
2023/12/24 10:34:01;;;;;;;20.27;12.90;;;4.50;1.00;;;;;;5072953;28;20348;-79
2023/12/24 10:36:32;;;;;;;25.30;13.13;;;4.50;1.00;;;;;;5065878;28;20327;-79
2023/12/24 10:39:00;;;;;;;23.53;13.10;;;4.50;1.00;;;;;;5068059;28;20250;-78
2023/12/24 10:41:30;;;;;;;22.60;13.13;;;4.50;1.00;;;;;;5065203;28;20263;-78
2023/12/24 10:43:59;;;;;;;21.63;12.83;;;4.50;1.00;;;;;;5058945;28;20273;-79
2023/12/24 10:46:27;;;;;;;18.70;12.30;;;4.50;1.00;;;;;;5062683;28;20822;-78
2023/12/24 10:48:56;;;;;;;27.37;13.50;;;4.60;1.00;;;;;;5066251;28;20746;-78
2023/12/24 10:51:24;;;;;;;18.93;12.87;;;4.50;1.00;;;;;;5066026;28;20231;-77
2023/12/24 10:53:58;;;;;;;19.83;13.13;;;4.60;1.00;;;;;;5064383;28;20711;-79
2023/12/24 10:56:32;;;;;;;21.20;12.57;;;4.60;1.00;;;;;;5064982;28;20315;-78
2023/12/24 10:59:07;;;;;;;21.80;13.10;;;4.60;1.00;;;;;;5059292;28;20244;-77
2023/12/24 11:01:35;;;;;;;20.27;12.83;;;4.70;1.00;;;;;;5063796;28;20258;-79
2023/12/24 11:04:04;;;;;;;19.83;13.20;;;4.70;1.00;;;;;;5079528;28;20277;-79
2023/12/24 11:06:48;;;;;;;18.80;13.10;;;4.70;1.00;;;;;;5063550;28;20225;-79
2023/12/24 11:09:46;;;;;;;22.83;14.13;;;4.70;1.00;;;;;;5070282;28;20228;-76
2023/12/24 11:12:32;;;;;;;24.80;13.03;;;4.70;1.00;;;;;;5063506;28;20224;-78
2023/12/24 11:15:01;;;;;;;21.67;12.13;;;4.70;1.00;;;;;;5079283;28;20399;-78
2023/12/24 11:17:49;;;;;;;17.67;11.43;;;4.70;1.00;;;;;;5055793;28;20305;-80
2023/12/24 11:20:39;;;;;;;19.03;12.57;;;4.70;1.00;;;;;;5052246;28;20248;-78
2023/12/24 11:23:16;;;;;;;17.40;11.57;;;4.70;1.00;;;;;;5056234;28;20316;-78
2023/12/24 11:25:47;;;;;;;18.37;10.20;;;4.70;1.00;;;;;;5060037;28;20219;-78
2023/12/24 11:28:37;;;;;;;20.43;11.13;;;4.70;1.00;;;;;;5066864;28;20235;-78
2023/12/24 11:31:06;;;;;;;17.73;10.07;;;4.60;1.00;;;;;;5095071;28;20228;-79
2023/12/24 11:33:48;;;;;;;15.63;9.80;;;4.50;1.00;;;;;;5064745;28;20762;-78
2023/12/24 11:36:19;;;;;;;15.67;9.70;;;4.50;1.00;;;;;;5060788;28;20299;-77
2023/12/24 11:38:48;;;;;;;15.90;10.43;;;4.70;1.00;;;;;;5063393;28;20232;-78
2023/12/24 11:41:21;;;;;;;16.37;10.10;;;4.60;1.00;;;;;;5064841;28;20223;-80
2023/12/24 11:43:58;;;;;;;14.10;10.20;;;4.60;1.00;;;;;;5065616;28;20231;-79
2023/12/24 11:46:28;;;;;;;14.27;10.40;;;4.60;1.00;;;;;;5062124;28;20227;-78
2023/12/24 11:49:03;;;;;;;14.90;10.57;;;4.60;1.00;;;;;;5062894;28;20301;-79
2023/12/24 11:51:32;;;;;;;16.97;10.50;;;4.60;1.00;;;;;;5064032;28;20799;-80
2023/12/24 11:54:03;;;;;;;18.37;10.53;;;4.60;1.00;;;;;;5063922;28;20360;-79
2023/12/24 11:56:34;;;;;;;15.60;9.97;;;4.60;1.00;;;;;;5059830;28;20324;-79
2023/12/24 11:59:04;;;;;;;17.63;10.17;;;4.60;1.00;;;;;;5055778;28;20950;-78
2023/12/24 12:01:36;;;;;;;16.60;10.53;;;4.60;1.00;;;;;;5064122;28;20227;-78
2023/12/24 12:04:06;;;;;;;14.47;10.07;;;4.50;1.00;;;;;;5066111;28;20227;-78
2023/12/24 12:06:36;;;;;;;11.70;9.50;;;4.60;1.00;;;;;;5052326;28;20818;-78
2023/12/24 12:09:06;;;;;;;16.90;10.40;;;4.70;1.00;;;;;;5048387;28;20286;-77
2023/12/24 12:11:37;;;;;;;15.97;10.70;;;4.80;1.00;;;;;;5062826;28;20220;-76
2023/12/24 12:14:05;;;;;;;14.23;10.70;;;5.00;1.00;;;;;;5062222;28;20239;-77
2023/12/24 12:16:35;;;;;;;15.00;9.97;;;4.90;1.00;;;;;;5042416;28;20231;-79
2023/12/24 12:19:03;;;;;;;15.23;10.60;;;4.90;1.00;;;;;;5064551;28;20634;-78
2023/12/24 12:21:32;;;;;;;12.47;8.83;;;4.90;1.00;;;;;;5057354;28;20650;-77
2023/12/24 12:24:00;;;;;;;11.93;7.80;;;4.90;1.00;;;;;;5062425;28;20232;-76
2023/12/24 12:26:29;;;;;;;11.40;8.37;;;4.80;1.00;;;;;;5059976;28;20317;-78
2023/12/24 12:28:59;;;;;;;13.23;7.80;;;4.70;1.00;;;;;;5058588;28;20270;-78
2023/12/24 12:31:27;;;;;;;12.20;7.17;;;4.60;1.00;;;;;;5065020;28;20224;-78
2023/12/24 12:33:56;;;;;;;10.17;7.10;;;4.70;1.00;;;;;;5062296;28;20231;-78
2023/12/24 12:36:25;;;;;;;10.83;7.67;;;4.80;1.00;;;;;;5061637;28;20224;-77
2023/12/24 12:38:54;;;;;;;11.37;7.07;;;4.70;1.00;;;;;;5061863;28;20236;-78
2023/12/24 12:41:23;;;;;;;10.10;6.50;;;4.60;1.00;;;;;;5063155;28;20220;-78
2023/12/24 12:43:51;;;;;;;10.83;7.27;;;4.60;1.00;;;;;;5062687;28;20216;-78
2023/12/24 12:46:22;;;;;;;11.10;6.90;;;4.70;1.00;;;;;;5056183;28;20555;-79
2023/12/24 12:48:50;;;;;;;10.70;6.57;;;4.70;1.00;;;;;;5061959;28;20750;-78
2023/12/24 12:51:19;;;;;;;11.70;6.53;;;4.80;1.00;;;;;;5062231;28;20592;-78
2023/12/24 12:53:48;;;;;;;11.43;6.90;;;4.70;1.00;;;;;;5064659;28;20232;-78
2023/12/24 12:56:17;;;;;;;10.57;6.90;;;4.70;1.00;;;;;;5090265;28;20220;-77
2023/12/24 12:58:52;;;;;;;10.43;6.60;;;4.60;1.00;;;;;;5067965;28;20223;-78
2023/12/24 13:01:23;;;;;;;12.60;6.50;;;4.60;1.00;;;;;;5066039;28;20252;-77
2023/12/24 13:03:58;;;;;;;11.50;6.90;;;4.60;1.00;;;;;;5065322;28;20215;-78
2023/12/24 13:06:27;;;;;;;11.97;7.10;;;4.60;1.00;;;;;;5062493;28;20238;-79
2023/12/24 13:09:06;;;;;;;10.30;7.13;;;4.50;1.00;;;;;;5063517;28;20574;-78
2023/12/24 13:11:35;;;;;;;12.93;7.27;;;4.50;1.00;;;;;;5064276;28;20311;-78
2023/12/24 13:14:05;;;;;;;10.53;7.37;;;4.40;1.00;;;;;;5066693;28;20220;-78